Kaisei Maru — JD3114 — position and weather

sailwx.info

Track history (hours):
 
Tides and Currents Weather Stations Pressure Air Temp Water Temp Dewpoint Dewpoint Depression Visibility Wind Speed Wind Dir Waves Ship Positions

Kaisei Maru

Last reported at 2016-Oct-01 04:33 UTC. Time now 2016-Oct-01 22:19 UTC.
Position N 35°41' E 139°59'.

Length 52 m; draft 3.8 m.

Type: Tanker. MMSI: 431001837.

Date/timePositionNaut miles runAvg speedWind from/ knotsBaromVisibWave heightAir tempDewpointWater temp
2016-Oct-01 04:33N 35°41' E 139°59'0 0.0
2016-Oct-01 03:33N 35°41' E 139°59'0 0.0
2016-Oct-01 00:33N 35°41' E 139°59'0 0.0
2016-Sep-30 22:33N 35°41' E 139°59'0 0.0
2016-Sep-30 20:33N 35°41' E 139°59'0 0.0
2016-Sep-30 17:33N 35°41' E 139°59'0 0.0
2016-Sep-30 16:33N 35°41' E 139°59'0 0.0
2016-Sep-30 14:33N 35°41' E 139°59'0 0.0
2016-Sep-30 13:33N 35°41' E 139°59'0 0.0
2016-Sep-30 10:32N 35°41' E 139°59'0 0.0
2016-Sep-30 08:33N 35°41' E 139°59'0 0.0
2016-Sep-30 06:33N 35°41' E 139°59'0 0.0
2016-Sep-30 03:33N 35°41' E 139°59'0 0.0
2016-Sep-30 02:32N 35°41' E 139°59'0 0.0
2016-Sep-29 23:33N 35°41' E 139°59'0 0.0
2016-Sep-29 21:33N 35°41' E 139°59'0 0.0
2016-Sep-29 20:33N 35°41' E 139°59'0 0.0
2016-Sep-29 19:33N 35°41' E 139°59'0 0.0
2016-Sep-29 16:33N 35°41' E 139°59'0 0.0
2016-Sep-29 15:33N 35°41' E 139°59'0 0.0
2016-Sep-29 14:33N 35°41' E 139°59'0 0.0
2016-Sep-29 13:33N 35°41' E 139°59'0 0.0
2016-Sep-29 08:33N 35°41' E 139°59'0 0.0
2016-Sep-29 07:32N 35°41' E 139°59'19 2.8
2016-Sep-29 00:33N 35°29' E 139°40'3 0.9
2016-Sep-28 21:33N 35°27' E 139°42'0 0.0
2016-Sep-28 19:33N 35°27' E 139°42'18 6.1
2016-Sep-28 16:33N 35°09' E 139°45'236 7.7
2016-Sep-27 10:09N 34°20' E 135°05'27 2.9
2016-Sep-27 00:33N 34°42' E 135°24'10 2.5
2016-Sep-26 20:33N 34°41' E 135°12'0 0.0
2016-Sep-26 19:33N 34°41' E 135°12'0 0.0
2016-Sep-26 15:33N 34°41' E 135°12'0 0.0
2016-Sep-26 13:33N 34°41' E 135°12'0 0.0
2016-Sep-26 11:33N 34°41' E 135°12'0 0.0
2016-Sep-26 08:33N 34°41' E 135°12'11 1.9
2016-Sep-26 02:33N 34°31' E 135°18'10 2.0
2016-Sep-25 21:33N 34°41' E 135°14'2 0.4
2016-Sep-25 17:33N 34°41' E 135°12'0 0.0
2016-Sep-25 16:33N 34°41' E 135°12'0 0.0
2016-Sep-25 15:33N 34°41' E 135°12'0 0.0
2016-Sep-25 14:33N 34°41' E 135°12'0 0.0
2016-Sep-25 12:33N 34°41' E 135°12'0 0.0
2016-Sep-25 11:33N 34°41' E 135°12'0 0.0
2016-Sep-25 10:33N 34°41' E 135°12'0 0.0
2016-Sep-25 09:33N 34°41' E 135°12'0 0.0
2016-Sep-25 07:33N 34°41' E 135°12'0 0.0
2016-Sep-25 04:33N 34°41' E 135°12'0 0.0
2016-Sep-25 00:33N 34°41' E 135°12'0 0.2
2016-Sep-24 22:33N 34°41' E 135°13'3 3.5
2016-Sep-24 21:33N 34°38' E 135°11'10 0.2
2016-Sep-23 04:07N 34°37' E 134°59'712.4
2016-Sep-23 03:33N 34°36' E 135°07'1211.6
2016-Sep-23 02:33N 34°37' E 135°21'5 5.2
2016-Sep-23 01:33N 34°40' E 135°27'0 0.0
2016-Sep-23 00:33N 34°40' E 135°27'0 0.0
2016-Sep-22 23:33N 34°40' E 135°27'12 4.0
2016-Sep-22 20:33N 34°41' E 135°12'0 0.0
2016-Sep-22 12:33N 34°41' E 135°12'1 0.2
2016-Sep-22 04:33N 34°40' E 135°11'0 0.0
2016-Sep-22 03:33N 34°40' E 135°11'0 0.0
2016-Sep-22 00:33N 34°40' E 135°11'0 0.0
2016-Sep-21 23:33N 34°40' E 135°11'0 0.0
2016-Sep-21 22:33N 34°40' E 135°11'0 0.0
2016-Sep-21 19:33N 34°40' E 135°11'0 0.0
2016-Sep-21 16:33N 34°40' E 135°11'0 0.0
2016-Sep-21 09:33N 34°40' E 135°11'0 0.0
2016-Sep-21 08:33N 34°40' E 135°11'0 0.0
2016-Sep-21 05:33N 34°40' E 135°11'  
Track history (hours):
 
Tides and Currents Weather Stations Pressure Air Temp Water Temp Dewpoint Dewpoint Depression Visibility Wind Speed Wind Dir Waves Ship Positions

Kaisei Maru

Last reported at 2016-Oct-01 04:33 UTC. Time now 2016-Oct-01 22:19 UTC.
Position N 35°41' E 139°59'.

Length 52 m; draft 3.8 m.

Type: Tanker. MMSI: 431001837.

Date/timePositionNaut miles runAvg speedWind from/ knotsBaromVisibWave heightAir tempDewpointWater temp
2016-Oct-01 04:33N 35°41' E 139°59'0 0.0
2016-Oct-01 03:33N 35°41' E 139°59'0 0.0
2016-Oct-01 00:33N 35°41' E 139°59'0 0.0
2016-Sep-30 22:33N 35°41' E 139°59'0 0.0
2016-Sep-30 20:33N 35°41' E 139°59'0 0.0
2016-Sep-30 17:33N 35°41' E 139°59'0 0.0
2016-Sep-30 16:33N 35°41' E 139°59'0 0.0
2016-Sep-30 14:33N 35°41' E 139°59'0 0.0
2016-Sep-30 13:33N 35°41' E 139°59'0 0.0
2016-Sep-30 10:32N 35°41' E 139°59'0 0.0
2016-Sep-30 08:33N 35°41' E 139°59'0 0.0
2016-Sep-30 06:33N 35°41' E 139°59'0 0.0
2016-Sep-30 03:33N 35°41' E 139°59'0 0.0
2016-Sep-30 02:32N 35°41' E 139°59'0 0.0
2016-Sep-29 23:33N 35°41' E 139°59'0 0.0
2016-Sep-29 21:33N 35°41' E 139°59'0 0.0
2016-Sep-29 20:33N 35°41' E 139°59'0 0.0
2016-Sep-29 19:33N 35°41' E 139°59'0 0.0
2016-Sep-29 16:33N 35°41' E 139°59'0 0.0
2016-Sep-29 15:33N 35°41' E 139°59'0 0.0
2016-Sep-29 14:33N 35°41' E 139°59'0 0.0
2016-Sep-29 13:33N 35°41' E 139°59'0 0.0
2016-Sep-29 08:33N 35°41' E 139°59'0 0.0
2016-Sep-29 07:32N 35°41' E 139°59'19 2.8
2016-Sep-29 00:33N 35°29' E 139°40'3 0.9
2016-Sep-28 21:33N 35°27' E 139°42'0 0.0
2016-Sep-28 19:33N 35°27' E 139°42'18 6.1
2016-Sep-28 16:33N 35°09' E 139°45'236 7.7
2016-Sep-27 10:09N 34°20' E 135°05'27 2.9
2016-Sep-27 00:33N 34°42' E 135°24'10 2.5
2016-Sep-26 20:33N 34°41' E 135°12'0 0.0
2016-Sep-26 19:33N 34°41' E 135°12'0 0.0
2016-Sep-26 15:33N 34°41' E 135°12'0 0.0
2016-Sep-26 13:33N 34°41' E 135°12'0 0.0
2016-Sep-26 11:33N 34°41' E 135°12'0 0.0
2016-Sep-26 08:33N 34°41' E 135°12'11 1.9
2016-Sep-26 02:33N 34°31' E 135°18'10 2.0
2016-Sep-25 21:33N 34°41' E 135°14'2 0.4
2016-Sep-25 17:33N 34°41' E 135°12'0 0.0
2016-Sep-25 16:33N 34°41' E 135°12'0 0.0
2016-Sep-25 15:33N 34°41' E 135°12'0 0.0
2016-Sep-25 14:33N 34°41' E 135°12'0 0.0
2016-Sep-25 12:33N 34°41' E 135°12'0 0.0
2016-Sep-25 11:33N 34°41' E 135°12'0 0.0
2016-Sep-25 10:33N 34°41' E 135°12'0 0.0
2016-Sep-25 09:33N 34°41' E 135°12'0 0.0
2016-Sep-25 07:33N 34°41' E 135°12'0 0.0
2016-Sep-25 04:33N 34°41' E 135°12'0 0.0
2016-Sep-25 00:33N 34°41' E 135°12'0 0.2
2016-Sep-24 22:33N 34°41' E 135°13'3 3.5
2016-Sep-24 21:33N 34°38' E 135°11'10 0.2
2016-Sep-23 04:07N 34°37' E 134°59'712.4
2016-Sep-23 03:33N 34°36' E 135°07'1211.6
2016-Sep-23 02:33N 34°37' E 135°21'5 5.2
2016-Sep-23 01:33N 34°40' E 135°27'0 0.0
2016-Sep-23 00:33N 34°40' E 135°27'0 0.0
2016-Sep-22 23:33N 34°40' E 135°27'12 4.0
2016-Sep-22 20:33N 34°41' E 135°12'0 0.0
2016-Sep-22 12:33N 34°41' E 135°12'1 0.2
2016-Sep-22 04:33N 34°40' E 135°11'0 0.0
2016-Sep-22 03:33N 34°40' E 135°11'0 0.0
2016-Sep-22 00:33N 34°40' E 135°11'0 0.0
2016-Sep-21 23:33N 34°40' E 135°11'0 0.0
2016-Sep-21 22:33N 34°40' E 135°11'0 0.0
2016-Sep-21 19:33N 34°40' E 135°11'0 0.0
2016-Sep-21 16:33N 34°40' E 135°11'0 0.0
2016-Sep-21 09:33N 34°40' E 135°11'0 0.0
2016-Sep-21 08:33N 34°40' E 135°11'0 0.0
2016-Sep-21 05:33N 34°40' E 135°11'  

Dump ship's entire track history